Time;durP1;ratioP1;P1;durP2;ratioP2;P2;SDS_P1;SDS_P2;PMS_P1;PMS_P2;Temp;Humidity;BMP_temperature;BMP_pressure;BME280_temperature;BME280_humidity;BME280_pressure;Samples;Min_cycle;Max_cycle;Signal;HPM_P1;HPM_P2
2022/06/05 00:01:19;;;;;;;0.30;0.30;;;19.00;99.90;;;;;;5114004;28;20459;-68
2022/06/05 00:03:57;;;;;;;0.30;0.30;;;19.00;99.90;;;;;;5113644;28;20412;-69
2022/06/05 00:06:51;;;;;;;0.30;0.30;;;19.10;99.90;;;;;;5113939;28;20445;-69
2022/06/05 00:09:21;;;;;;;0.30;0.30;;;19.10;99.90;;;;;;5108028;28;20422;-69
2022/06/05 00:12:11;;;;;;;0.30;0.30;;;19.20;99.90;;;;;;5114073;28;20921;-70
2022/06/05 00:14:38;;;;;;;0.30;0.30;;;19.30;99.90;;;;;;5113913;28;20728;-71
2022/06/05 00:17:11;;;;;;;0.40;0.40;;;19.30;99.90;;;;;;5113942;28;20398;-70
2022/06/05 00:19:39;;;;;;;0.30;0.30;;;19.20;99.90;;;;;;5113746;28;20492;-68
2022/06/05 00:22:06;;;;;;;0.40;0.40;;;19.20;99.90;;;;;;5113391;28;20436;-70
2022/06/05 00:24:34;;;;;;;0.30;0.30;;;19.20;99.90;;;;;;5113615;28;20433;-70
2022/06/05 00:27:03;;;;;;;1.27;0.87;;;19.10;99.90;;;;;;5113773;28;20459;-70
2022/06/05 00:29:51;;;;;;;0.40;0.40;;;19.20;99.90;;;;;;5113977;28;20834;-71
2022/06/05 00:32:26;;;;;;;0.30;0.30;;;19.30;99.90;;;;;;5113536;28;20436;-70
2022/06/05 00:34:52;;;;;;;0.87;0.60;;;19.20;99.90;;;;;;5113775;28;20409;-70
2022/06/05 00:37:41;;;;;;;0.30;0.30;;;19.10;99.90;;;;;;5113698;28;20407;-70
2022/06/05 00:40:24;;;;;;;0.30;0.30;;;19.20;99.90;;;;;;5116783;28;20167;-70
2022/06/05 00:42:50;;;;;;;0.73;0.73;;;19.20;99.90;;;;;;5117166;28;20546;-70
2022/06/05 00:45:16;;;;;;;0.30;0.30;;;19.20;99.90;;;;;;5117322;28;20457;-69
2022/06/05 00:47:44;;;;;;;0.30;0.30;;;19.30;99.90;;;;;;5117346;28;20406;-70
2022/06/05 00:50:22;;;;;;;0.30;0.30;;;19.30;99.90;;;;;;5117269;28;20408;-70
2022/06/05 00:52:51;;;;;;;0.40;0.40;;;19.20;99.90;;;;;;5116881;28;20454;-69
2022/06/05 00:55:18;;;;;;;0.30;0.30;;;19.20;99.90;;;;;;5117104;28;20467;-70
2022/06/05 00:57:44;;;;;;;0.30;0.30;;;19.30;99.90;;;;;;5117165;28;20404;-69
2022/06/05 01:00:14;;;;;;;0.30;0.30;;;19.20;99.90;;;;;;5117108;28;20455;-70
2022/06/05 01:02:43;;;;;;;0.80;0.80;;;19.20;99.90;;;;;;5116791;28;20459;-70
2022/06/05 01:05:11;;;;;;;0.30;0.30;;;19.10;99.90;;;;;;5116810;28;20497;-70
2022/06/05 01:07:37;;;;;;;0.50;0.50;;;19.10;99.90;;;;;;5116847;28;20408;-70
2022/06/05 01:10:04;;;;;;;0.80;0.80;;;19.00;99.90;;;;;;5116754;28;20407;-68
2022/06/05 01:12:57;;;;;;;0.30;0.30;;;19.00;99.90;;;;;;5116623;28;20917;-69
2022/06/05 01:15:29;;;;;;;0.30;0.30;;;18.90;99.90;;;;;;5116657;28;20411;-70
2022/06/05 01:18:13;;;;;;;0.30;0.30;;;18.90;99.90;;;;;;5116850;28;20434;-69
2022/06/05 01:20:56;;;;;;;0.30;0.30;;;18.90;99.90;;;;;;5116912;28;20415;-69
2022/06/05 01:23:30;;;;;;;0.47;0.47;;;18.80;99.90;;;;;;5116181;28;20428;-70
2022/06/05 01:26:23;;;;;;;0.40;0.40;;;18.80;99.90;;;;;;5116650;28;20458;-69
2022/06/05 01:29:02;;;;;;;0.70;0.70;;;18.80;99.90;;;;;;5116557;28;20482;-70
2022/06/05 01:31:31;;;;;;;0.30;0.30;;;18.70;99.90;;;;;;5116471;28;20793;-70
2022/06/05 01:34:23;;;;;;;0.30;0.30;;;18.70;99.90;;;;;;5114856;28;20924;-67
2022/06/05 01:37:12;;;;;;;0.30;0.30;;;18.70;99.90;;;;;;5116358;28;20808;-69
2022/06/05 01:39:50;;;;;;;0.50;0.50;;;18.70;99.90;;;;;;5116172;28;20460;-70
2022/06/05 01:42:52;;;;;;;0.80;0.67;;;18.70;99.90;;;;;;5116071;28;20910;-68
2022/06/05 01:45:27;;;;;;;0.30;0.30;;;18.70;99.90;;;;;;5094282;28;20471;-69
2022/06/05 01:47:55;;;;;;;0.30;0.30;;;18.70;99.90;;;;;;5116366;28;20398;-69
2022/06/05 01:50:43;;;;;;;0.30;0.30;;;18.70;99.90;;;;;;5115369;28;20422;-69
2022/06/05 01:53:40;;;;;;;0.30;0.30;;;18.60;99.90;;;;;;5115859;28;20398;-71
2022/06/05 01:56:16;;;;;;;0.30;0.30;;;18.60;99.90;;;;;;5116126;28;20402;-69
2022/06/05 01:58:50;;;;;;;0.30;0.30;;;18.60;99.90;;;;;;5116130;28;20394;-71
2022/06/05 02:01:23;;;;;;;0.40;0.40;;;18.70;99.90;;;;;;5116227;28;20416;-70
2022/06/05 02:04:12;;;;;;;0.30;0.30;;;18.70;99.90;;;;;;5115770;28;20769;-70
2022/06/05 02:06:44;;;;;;;0.30;0.30;;;18.70;99.90;;;;;;5115873;28;20450;-71
2022/06/05 02:09:25;;;;;;;0.30;0.30;;;18.60;99.90;;;;;;5115877;28;20753;-70
2022/06/05 02:11:51;;;;;;;0.30;0.30;;;18.70;99.90;;;;;;5115773;28;20449;-68
2022/06/05 02:14:16;;;;;;;0.30;0.30;;;18.70;99.90;;;;;;5115413;27;20427;-71
2022/06/05 02:16:43;;;;;;;0.30;0.30;;;18.60;99.90;;;;;;5115639;28;20164;-69
2022/06/05 02:19:13;;;;;;;0.30;0.30;;;18.70;99.90;;;;;;5115610;28;20175;-70
2022/06/05 02:21:40;;;;;;;1.13;1.00;;;18.70;99.90;;;;;;5115247;28;20438;-71
2022/06/05 02:24:07;;;;;;;0.50;0.50;;;18.80;99.90;;;;;;5115037;28;20428;-70
2022/06/05 02:26:33;;;;;;;0.33;0.33;;;18.80;99.90;;;;;;5115219;28;20559;-68
2022/06/05 02:29:01;;;;;;;0.30;0.30;;;18.80;99.90;;;;;;5115448;28;20501;-70
2022/06/05 02:31:45;;;;;;;0.30;0.30;;;18.80;99.90;;;;;;5115134;28;20432;-70
2022/06/05 02:34:18;;;;;;;0.30;0.30;;;18.80;99.90;;;;;;5115195;28;20860;-69
2022/06/05 02:37:00;;;;;;;0.30;0.30;;;18.80;99.90;;;;;;5115291;28;20414;-69
2022/06/05 02:39:29;;;;;;;0.40;0.40;;;18.80;99.90;;;;;;5115293;28;20808;-69
2022/06/05 02:42:02;;;;;;;0.40;0.40;;;18.70;99.90;;;;;;5115041;28;20426;-70
2022/06/05 02:45:01;;;;;;;0.40;0.40;;;18.70;99.90;;;;;;5115095;28;20557;-68
2022/06/05 02:47:43;;;;;;;0.30;0.30;;;18.60;99.90;;;;;;5115177;28;20403;-71
2022/06/05 02:50:27;;;;;;;0.73;0.73;;;18.50;99.90;;;;;;5115001;28;20401;-68
2022/06/05 02:53:00;;;;;;;0.63;0.63;;;18.60;99.90;;;;;;5114509;28;20424;-68
2022/06/05 02:55:26;;;;;;;0.37;0.37;;;18.60;99.90;;;;;;5115007;28;20414;-69
2022/06/05 02:57:52;;;;;;;0.60;0.60;;;18.50;99.90;;;;;;5114904;28;20472;-70
2022/06/05 03:00:20;;;;;;;0.50;0.50;;;18.40;99.90;;;;;;5114600;28;20406;-71
2022/06/05 03:05:32;;;;;;;0.30;0.30;;;18.40;99.90;;;;;;5114433;28;20459;-69
2022/06/05 03:07:58;;;;;;;0.40;0.40;;;18.40;99.90;;;;;;5114509;28;20406;-68
2022/06/05 03:10:23;;;;;;;0.70;0.70;;;18.40;99.90;;;;;;5114522;28;20401;-69
2022/06/05 03:12:49;;;;;;;0.30;0.30;;;18.50;99.90;;;;;;5114265;28;20199;-68
2022/06/05 03:15:15;;;;;;;0.40;0.40;;;18.50;99.90;;;;;;5114530;28;20183;-70
2022/06/05 03:17:42;;;;;;;0.30;0.30;;;18.50;99.90;;;;;;5114555;28;20173;-68
2022/06/05 03:20:09;;;;;;;0.67;0.67;;;18.50;99.90;;;;;;5114299;28;20542;-70
2022/06/05 03:22:35;;;;;;;0.30;0.30;;;18.50;99.90;;;;;;5114357;28;20444;-68
2022/06/05 03:25:01;;;;;;;0.40;0.40;;;18.50;99.90;;;;;;5114247;28;20999;-69
2022/06/05 03:27:27;;;;;;;0.30;0.30;;;18.50;99.90;;;;;;5114322;28;20408;-68
2022/06/05 03:29:53;;;;;;;0.30;0.30;;;18.50;99.90;;;;;;5114447;28;20410;-71
2022/06/05 03:32:19;;;;;;;0.30;0.30;;;18.50;99.90;;;;;;5114091;28;20432;-69
2022/06/05 03:34:44;;;;;;;0.50;0.50;;;18.50;99.90;;;;;;5113004;28;20212;-70
2022/06/05 03:37:11;;;;;;;0.30;0.30;;;18.50;99.90;;;;;;5114360;28;20196;-71
2022/06/05 03:39:37;;;;;;;0.30;0.30;;;18.60;99.90;;;;;;5114146;28;20189;-69
2022/06/05 03:42:03;;;;;;;0.30;0.30;;;18.50;99.90;;;;;;5113947;28;20432;-69
2022/06/05 03:44:29;;;;;;;0.30;0.30;;;18.60;99.90;;;;;;5114329;28;20401;-70
2022/06/05 03:46:55;;;;;;;0.40;0.40;;;18.50;99.90;;;;;;5114078;28;20776;-70
2022/06/05 03:49:20;;;;;;;0.30;0.30;;;18.40;99.90;;;;;;5114639;28;20396;-70
2022/06/05 03:51:46;;;;;;;0.30;0.30;;;18.30;99.90;;;;;;5113940;28;20428;-68
2022/06/05 03:54:12;;;;;;;0.40;0.40;;;18.20;99.90;;;;;;5113861;28;20174;-70
2022/06/05 03:56:39;;;;;;;0.30;0.30;;;18.10;99.90;;;;;;5113994;28;20282;-69
2022/06/05 03:59:05;;;;;;;0.93;0.80;;;18.00;99.90;;;;;;5114002;28;20180;-67
2022/06/05 04:01:30;;;;;;;0.30;0.30;;;17.90;99.90;;;;;;5113974;28;20432;-69
2022/06/05 04:03:56;;;;;;;0.30;0.30;;;17.90;99.90;;;;;;5113606;28;20894;-69
2022/06/05 04:06:27;;;;;;;0.40;0.40;;;18.00;99.90;;;;;;5113845;28;20210;-69
2022/06/05 04:08:55;;;;;;;0.30;0.30;;;18.00;99.90;;;;;;5113889;28;20217;-69
2022/06/05 04:11:21;;;;;;;0.40;0.40;;;18.10;99.90;;;;;;5113801;28;20427;-71
2022/06/05 04:13:47;;;;;;;0.30;0.30;;;18.10;99.90;;;;;;5114933;28;20758;-69
2022/06/05 04:16:25;;;;;;;0.30;0.30;;;18.20;99.90;;;;;;5118050;28;20406;-69
2022/06/05 04:18:51;;;;;;;0.40;0.40;;;18.10;99.90;;;;;;5117843;28;20435;-70
2022/06/05 04:21:21;;;;;;;0.47;0.47;;;18.10;99.90;;;;;;5117854;28;20495;-68
2022/06/05 04:23:47;;;;;;;0.40;0.40;;;18.10;99.90;;;;;;5117534;27;20429;-69
2022/06/05 04:26:17;;;;;;;0.30;0.30;;;18.00;99.90;;;;;;5117739;28;20542;-70
2022/06/05 04:28:43;;;;;;;0.30;0.30;;;18.00;99.90;;;;;;5117775;28;20436;-70
2022/06/05 04:31:26;;;;;;;0.50;0.50;;;18.00;99.90;;;;;;5117698;28;20425;-69
2022/06/05 04:33:54;;;;;;;0.30;0.30;;;18.00;99.90;;;;;;5117474;28;20400;-68
2022/06/05 04:36:20;;;;;;;0.30;0.30;;;18.00;99.90;;;;;;5117690;28;20409;-71
2022/06/05 04:38:47;;;;;;;0.40;0.40;;;18.00;99.90;;;;;;5117564;28;20437;-70
2022/06/05 04:41:14;;;;;;;1.80;1.80;;;18.00;99.90;;;;;;5117372;28;20429;-69
2022/06/05 04:43:40;;;;;;;0.47;0.47;;;18.10;99.90;;;;;;5117112;28;20412;-69
2022/06/05 04:46:07;;;;;;;0.40;0.40;;;18.10;99.90;;;;;;5117239;28;20481;-68
2022/06/05 04:48:33;;;;;;;0.67;0.67;;;18.10;99.90;;;;;;5117427;27;20772;-70
2022/06/05 04:51:02;;;;;;;0.30;0.30;;;18.00;99.90;;;;;;5117223;27;20521;-68
2022/06/05 04:53:28;;;;;;;0.30;0.30;;;18.10;99.90;;;;;;5117021;28;20417;-69
2022/06/05 04:55:54;;;;;;;0.30;0.30;;;18.00;99.90;;;;;;5117216;28;20749;-70
2022/06/05 04:58:19;;;;;;;0.30;0.30;;;17.90;99.90;;;;;;5117026;28;20524;-70
2022/06/05 05:00:45;;;;;;;0.30;0.30;;;17.80;99.90;;;;;;5117110;27;20409;-69
2022/06/05 05:03:11;;;;;;;0.30;0.30;;;17.80;99.90;;;;;;5117293;28;20180;-70
2022/06/05 05:05:36;;;;;;;0.30;0.30;;;17.80;99.90;;;;;;5116788;28;20672;-71
2022/06/05 05:08:02;;;;;;;0.30;0.30;;;17.70;99.90;;;;;;5117057;28;20502;-70
2022/06/05 05:10:28;;;;;;;0.30;0.30;;;17.80;99.90;;;;;;5117004;28;20256;-71
2022/06/05 05:12:54;;;;;;;0.40;0.40;;;17.80;99.90;;;;;;5116516;28;20585;-70
2022/06/05 05:15:19;;;;;;;0.30;0.30;;;17.90;99.90;;;;;;5116754;28;20257;-69
2022/06/05 05:17:45;;;;;;;0.30;0.30;;;17.90;99.90;;;;;;5116826;28;20178;-69
2022/06/05 05:20:11;;;;;;;0.30;0.30;;;18.00;99.90;;;;;;5116762;28;20554;-71
2022/06/05 05:22:40;;;;;;;0.30;0.30;;;18.00;99.90;;;;;;5116262;28;20328;-70
2022/06/05 05:25:08;;;;;;;0.70;0.60;;;18.10;99.90;;;;;;5115583;28;20453;-70
2022/06/05 05:27:34;;;;;;;0.30;0.30;;;18.10;99.90;;;;;;5116360;28;20395;-70
2022/06/05 05:30:00;;;;;;;0.50;0.40;;;18.20;99.90;;;;;;5116671;28;20406;-68
2022/06/05 05:32:26;;;;;;;0.97;0.90;;;18.20;99.90;;;;;;5116318;28;20430;-70
2022/06/05 05:34:52;;;;;;;1.27;0.87;;;18.30;99.90;;;;;;5116436;28;20927;-70
2022/06/05 05:37:17;;;;;;;0.30;0.30;;;18.30;99.90;;;;;;5116523;28;20169;-69
2022/06/05 05:42:30;;;;;;;0.30;0.30;;;18.50;99.90;;;;;;5116233;28;20196;-70
2022/06/05 05:44:56;;;;;;;1.57;1.47;;;18.60;99.90;;;;;;5116305;28;20455;-70
2022/06/05 05:47:25;;;;;;;1.03;0.83;;;18.80;99.90;;;;;;5116216;28;20427;-69
2022/06/05 05:49:52;;;;;;;0.30;0.30;;;18.90;99.90;;;;;;5116293;28;20879;-70
2022/06/05 05:52:18;;;;;;;0.40;0.40;;;19.00;99.90;;;;;;5115751;28;20439;-71
2022/06/05 05:54:44;;;;;;;0.30;0.30;;;19.10;99.90;;;;;;5115967;28;20760;-69
2022/06/05 05:57:10;;;;;;;0.30;0.30;;;19.20;99.90;;;;;;5116190;28;20406;-69
2022/06/05 05:59:36;;;;;;;0.30;0.30;;;19.30;99.90;;;;;;5115985;28;20167;-71
2022/06/05 06:02:03;;;;;;;0.57;0.57;;;19.50;99.90;;;;;;5115611;28;20227;-69
2022/06/05 06:04:29;;;;;;;0.50;0.43;;;19.70;99.90;;;;;;5115980;28;20426;-70
2022/06/05 06:06:55;;;;;;;0.40;0.40;;;19.80;99.90;;;;;;5115816;28;20458;-71
2022/06/05 06:09:20;;;;;;;0.30;0.30;;;19.90;99.90;;;;;;5115587;28;20399;-68
2022/06/05 06:11:46;;;;;;;0.40;0.40;;;20.00;99.90;;;;;;5115564;27;20188;-69
2022/06/05 06:14:12;;;;;;;0.40;0.40;;;20.00;99.90;;;;;;5115526;28;20165;-69
2022/06/05 06:16:38;;;;;;;1.03;0.93;;;20.20;99.90;;;;;;5115688;28;20403;-70
2022/06/05 06:19:04;;;;;;;0.50;0.47;;;20.40;99.90;;;;;;5115680;28;20195;-70
2022/06/05 06:21:29;;;;;;;0.50;0.50;;;20.50;99.90;;;;;;5115499;28;20286;-70
2022/06/05 06:23:55;;;;;;;0.30;0.30;;;20.50;99.90;;;;;;5115004;28;20184;-70
2022/06/05 06:26:21;;;;;;;0.30;0.30;;;20.50;99.90;;;;;;5115309;28;20337;-68
2022/06/05 06:28:47;;;;;;;0.87;0.87;;;20.50;99.90;;;;;;5115491;28;20184;-70
2022/06/05 06:31:15;;;;;;;0.47;0.47;;;20.60;99.90;;;;;;5115263;28;20422;-69
2022/06/05 06:33:41;;;;;;;0.30;0.30;;;20.70;99.90;;;;;;5115038;28;20243;-70
2022/06/05 06:36:10;;;;;;;0.30;0.30;;;21.20;99.90;;;;;;5115664;28;20448;-68
2022/06/05 06:38:37;;;;;;;0.30;0.30;;;21.40;99.90;;;;;;5115529;28;20201;-69
2022/06/05 06:41:05;;;;;;;0.30;0.30;;;21.60;99.90;;;;;;5115033;28;20413;-71
2022/06/05 06:43:31;;;;;;;0.40;0.40;;;21.60;99.90;;;;;;5114916;28;20970;-71
2022/06/05 06:45:58;;;;;;;1.03;1.03;;;21.50;99.90;;;;;;5115456;28;20452;-70
2022/06/05 06:48:25;;;;;;;0.50;0.50;;;21.30;99.90;;;;;;5115031;28;20416;-69
2022/06/05 06:50:53;;;;;;;0.30;0.30;;;21.20;99.90;;;;;;5114757;28;20403;-69
2022/06/05 06:53:19;;;;;;;0.30;0.30;;;21.10;99.90;;;;;;5114711;28;20391;-69
2022/06/05 06:55:45;;;;;;;0.30;0.30;;;21.00;99.90;;;;;;5114883;27;20407;-68
2022/06/05 06:58:10;;;;;;;0.40;0.40;;;21.00;99.90;;;;;;5114922;28;20416;-71
2022/06/05 07:00:36;;;;;;;0.30;0.30;;;21.00;99.90;;;;;;5114923;28;20177;-68
2022/06/05 07:03:02;;;;;;;0.40;0.40;;;20.90;99.90;;;;;;5114376;28;20267;-70
2022/06/05 07:05:27;;;;;;;0.30;0.30;;;20.70;99.90;;;;;;5114463;28;20497;-70
2022/06/05 07:07:53;;;;;;;0.30;0.30;;;20.50;99.90;;;;;;5114733;28;20168;-69
2022/06/05 07:10:19;;;;;;;0.50;0.50;;;20.40;99.90;;;;;;5114486;28;20177;-71
2022/06/05 07:12:44;;;;;;;0.30;0.30;;;20.50;99.90;;;;;;5114217;28;20551;-70
2022/06/05 07:15:10;;;;;;;0.53;0.50;;;20.80;99.90;;;;;;5114697;28;20173;-71
2022/06/05 07:17:36;;;;;;;0.30;0.30;;;21.10;99.90;;;;;;5114555;28;20173;-71
2022/06/05 07:20:03;;;;;;;0.30;0.30;;;21.30;99.90;;;;;;5114367;28;20759;-70
2022/06/05 07:22:28;;;;;;;0.50;0.50;;;21.50;99.90;;;;;;5114316;28;20562;-69
2022/06/05 07:24:54;;;;;;;1.90;0.97;;;21.70;99.90;;;;;;5114584;28;20492;-70
2022/06/05 07:27:20;;;;;;;0.30;0.30;;;22.40;99.90;;;;;;5114174;28;20631;-69
2022/06/05 07:29:45;;;;;;;0.30;0.30;;;23.60;99.90;;;;;;5114424;28;20740;-68
2022/06/05 07:32:13;;;;;;;0.40;0.40;;;25.40;99.90;;;;;;5114082;28;20188;-70
2022/06/05 07:34:39;;;;;;;0.30;0.30;;;26.30;96.70;;;;;;5114172;28;20205;-70
2022/06/05 07:37:05;;;;;;;0.30;0.30;;;26.50;95.50;;;;;;5114179;28;20866;-71
2022/06/05 07:39:31;;;;;;;0.60;0.60;;;26.50;95.70;;;;;;5114197;28;20489;-70
2022/06/05 07:41:59;;;;;;;0.43;0.43;;;26.00;95.80;;;;;;5114034;28;20199;-71
2022/06/05 07:44:26;;;;;;;0.30;0.30;;;25.50;95.60;;;;;;5114086;28;20580;-71
2022/06/05 07:46:52;;;;;;;0.30;0.30;;;24.80;96.40;;;;;;5114075;28;20457;-71
2022/06/05 07:49:18;;;;;;;0.30;0.30;;;24.20;97.10;;;;;;5113452;28;20399;-68
2022/06/05 07:54:33;;;;;;;0.40;0.40;;;23.20;98.90;;;;;;5114114;28;20397;-69
2022/06/05 07:57:10;;;;;;;0.30;0.30;;;22.70;99.90;;;;;;5114175;28;20406;-68
2022/06/05 07:59:41;;;;;;;0.30;0.30;;;22.30;99.90;;;;;;5113992;28;20739;-70
2022/06/05 08:02:16;;;;;;;0.30;0.30;;;22.00;99.90;;;;;;5113585;28;20419;-70
2022/06/05 08:04:43;;;;;;;0.30;0.30;;;21.70;99.90;;;;;;5113882;28;20380;-70
2022/06/05 08:07:10;;;;;;;0.40;0.40;;;21.40;99.90;;;;;;5114001;28;20757;-68
2022/06/05 08:09:38;;;;;;;0.73;0.57;;;21.00;99.90;;;;;;5113914;28;20405;-69
2022/06/05 08:12:06;;;;;;;0.40;0.40;;;20.80;99.90;;;;;;5113750;28;20427;-71
2022/06/05 08:14:34;;;;;;;0.40;0.40;;;20.60;99.90;;;;;;5113761;28;20821;-69
2022/06/05 08:17:04;;;;;;;0.43;0.43;;;20.40;99.90;;;;;;5113754;28;20445;-70
2022/06/05 08:19:30;;;;;;;0.30;0.30;;;20.30;99.90;;;;;;5113951;28;20485;-69
2022/06/05 08:21:56;;;;;;;0.30;0.30;;;20.20;99.90;;;;;;5113647;28;20517;-69
2022/06/05 08:24:22;;;;;;;0.40;0.40;;;20.00;99.90;;;;;;5113327;28;20215;-69
2022/06/05 08:26:48;;;;;;;0.60;0.60;;;20.00;99.90;;;;;;5113563;28;20259;-70
2022/06/05 08:29:14;;;;;;;0.50;0.50;;;20.00;99.90;;;;;;5113627;28;20402;-69
2022/06/05 08:31:40;;;;;;;0.30;0.30;;;20.10;99.90;;;;;;5113637;28;20428;-70
2022/06/05 08:34:06;;;;;;;0.50;0.50;;;20.20;99.90;;;;;;5113528;28;20169;-69
2022/06/05 08:36:33;;;;;;;0.30;0.30;;;20.10;99.90;;;;;;5113727;28;20413;-69
2022/06/05 08:42:12;;;;;;;1.17;1.17;;;20.00;99.90;;;;;;5113869;28;20805;-70
2022/06/05 08:44:43;;;;;;;0.40;0.40;;;19.70;99.90;;;;;;5112306;28;20417;-70
2022/06/05 08:47:25;;;;;;;1.50;1.00;;;19.50;99.90;;;;;;5113428;28;20799;-70
2022/06/05 08:50:32;;;;;;;0.30;0.30;;;19.30;99.90;;;;;;5113670;28;20786;-70
2022/06/05 08:53:03;;;;;;;0.40;0.40;;;19.00;99.90;;;;;;5112782;28;20913;-70
2022/06/05 08:55:36;;;;;;;0.40;0.40;;;18.70;99.90;;;;;;5113526;28;20400;-70
2022/06/05 08:58:14;;;;;;;0.30;0.30;;;18.60;99.90;;;;;;5113688;28;20459;-70
2022/06/05 09:00:45;;;;;;;0.40;0.40;;;18.50;99.90;;;;;;5114294;28;20455;-69
2022/06/05 09:03:19;;;;;;;0.53;0.53;;;18.30;99.90;;;;;;5116697;28;20799;-70
2022/06/05 09:05:49;;;;;;;0.30;0.30;;;18.30;99.90;;;;;;5117056;28;20444;-68
2022/06/05 09:08:19;;;;;;;0.30;0.30;;;18.30;99.90;;;;;;5117012;28;20495;-70
2022/06/05 09:10:51;;;;;;;0.30;0.30;;;18.20;99.90;;;;;;5116810;28;20390;-69
2022/06/05 09:13:24;;;;;;;0.40;0.40;;;18.20;99.90;;;;;;5116699;28;20393;-70
2022/06/05 09:15:52;;;;;;;0.60;0.60;;;18.30;99.90;;;;;;5116690;28;20868;-69
2022/06/05 09:18:21;;;;;;;0.30;0.30;;;18.30;99.90;;;;;;5116829;28;20396;-69
2022/06/05 09:20:51;;;;;;;0.30;0.30;;;18.40;99.90;;;;;;5116625;28;20410;-69
2022/06/05 09:23:28;;;;;;;0.30;0.30;;;18.60;99.90;;;;;;5116490;28;20428;-70
2022/06/05 09:26:02;;;;;;;0.40;0.40;;;18.70;99.90;;;;;;5116844;27;20441;-68
2022/06/05 09:28:40;;;;;;;0.30;0.30;;;18.90;99.90;;;;;;5116732;28;20787;-70
2022/06/05 09:31:18;;;;;;;0.30;0.30;;;19.20;99.90;;;;;;5116539;28;20484;-68
2022/06/05 09:33:46;;;;;;;0.40;0.40;;;19.80;99.90;;;;;;5116382;28;20394;-69
2022/06/05 09:36:16;;;;;;;1.67;1.00;;;20.20;99.90;;;;;;5116377;28;20410;-68
2022/06/05 09:38:45;;;;;;;0.30;0.30;;;20.80;99.90;;;;;;5116532;28;20870;-70
2022/06/05 09:41:42;;;;;;;0.40;0.40;;;21.20;99.90;;;;;;5116356;28;20416;-70
2022/06/05 09:44:26;;;;;;;0.30;0.30;;;21.60;99.90;;;;;;5116098;28;20406;-68
2022/06/05 09:46:59;;;;;;;0.30;0.30;;;22.00;99.90;;;;;;5116154;28;20445;-68
2022/06/05 09:49:37;;;;;;;0.40;0.40;;;22.70;99.90;;;;;;5116320;28;20861;-69
2022/06/05 09:52:25;;;;;;;0.30;0.30;;;23.10;99.90;;;;;;5115923;28;20462;-69
2022/06/05 09:55:16;;;;;;;0.60;0.60;;;23.00;98.40;;;;;;5115993;28;20473;-69
2022/06/05 10:00:59;;;;;;;0.57;0.57;;;22.50;99.50;;;;;;5115884;28;20434;-69
2022/06/05 10:03:41;;;;;;;0.30;0.30;;;22.10;99.90;;;;;;5115678;27;20516;-71
2022/06/05 10:06:40;;;;;;;0.50;0.50;;;21.60;99.90;;;;;;5115870;28;20446;-70
2022/06/05 10:09:13;;;;;;;2.30;0.97;;;21.10;99.90;;;;;;5115648;28;20413;-68
2022/06/05 10:11:59;;;;;;;0.50;0.50;;;20.60;99.90;;;;;;5115026;27;20424;-70
2022/06/05 10:14:36;;;;;;;0.30;0.30;;;20.50;99.90;;;;;;5114836;28;20914;-70
2022/06/05 10:17:05;;;;;;;0.40;0.40;;;20.30;99.90;;;;;;5115688;28;20382;-70
2022/06/05 10:19:59;;;;;;;0.30;0.30;;;20.40;99.90;;;;;;5115397;28;20406;-70
2022/06/05 10:22:46;;;;;;;0.30;0.30;;;20.50;99.90;;;;;;5115009;28;20425;-70
2022/06/05 10:25:29;;;;;;;0.30;0.30;;;20.60;99.90;;;;;;5115333;28;20445;-70
2022/06/05 10:28:01;;;;;;;0.77;0.77;;;20.70;99.90;;;;;;5115302;28;20400;-69
2022/06/05 10:30:39;;;;;;;0.30;0.30;;;20.60;99.90;;;;;;5115434;28;20395;-69
2022/06/05 10:33:25;;;;;;;0.30;0.30;;;20.60;99.90;;;;;;5114971;28;20425;-69
2022/06/05 10:35:55;;;;;;;0.30;0.30;;;20.60;99.90;;;;;;5115289;28;20406;-70
2022/06/05 10:38:38;;;;;;;1.27;1.17;;;20.40;99.90;;;;;;5115173;28;20398;-70
2022/06/05 10:41:24;;;;;;;0.50;0.50;;;20.30;99.90;;;;;;5115056;28;20394;-69
2022/06/05 10:44:15;;;;;;;0.30;0.30;;;20.20;99.90;;;;;;5114646;28;20485;-68
2022/06/05 10:47:08;;;;;;;0.30;0.30;;;19.90;99.90;;;;;;5105086;28;20464;-69
2022/06/05 10:49:47;;;;;;;0.70;0.67;;;19.90;99.90;;;;;;5114543;28;20463;-70
2022/06/05 10:52:34;;;;;;;0.30;0.30;;;19.90;99.90;;;;;;5114448;28;20413;-70
2022/06/05 10:55:39;;;;;;;0.30;0.30;;;19.90;99.90;;;;;;5114811;28;20425;-70
2022/06/05 10:58:13;;;;;;;0.30;0.30;;;19.80;99.90;;;;;;5114174;28;20413;-70
2022/06/05 11:00:58;;;;;;;0.57;0.57;;;19.80;99.90;;;;;;5114881;28;20429;-69
2022/06/05 11:03:35;;;;;;;0.40;0.40;;;19.90;99.90;;;;;;5114533;28;20488;-69
2022/06/05 11:06:25;;;;;;;0.30;0.30;;;20.00;99.90;;;;;;5114671;28;20444;-70
2022/06/05 11:09:25;;;;;;;0.50;0.50;;;20.10;99.90;;;;;;5114729;28;20394;-69
2022/06/05 11:15:18;;;;;;;0.40;0.40;;;20.50;99.90;;;;;;5114700;28;20454;-69
2022/06/05 11:18:05;;;;;;;2.60;0.70;;;20.60;99.90;;;;;;5114429;28;20398;-70
2022/06/05 11:20:33;;;;;;;0.40;0.40;;;20.60;99.90;;;;;;5114487;28;20466;-70
2022/06/05 11:23:03;;;;;;;0.30;0.30;;;20.50;99.90;;;;;;5113379;28;20529;-70
2022/06/05 11:25:45;;;;;;;0.30;0.30;;;20.30;99.90;;;;;;5114391;28;20452;-69
2022/06/05 11:28:39;;;;;;;0.50;0.50;;;20.20;99.90;;;;;;5114315;28;20454;-68
2022/06/05 11:31:43;;;;;;;0.30;0.30;;;19.80;99.90;;;;;;5114407;27;20497;-70
2022/06/05 11:34:18;;;;;;;0.30;0.30;;;19.70;99.90;;;;;;5097699;28;20425;-69
2022/06/05 11:37:12;;;;;;;0.30;0.30;;;19.60;99.90;;;;;;5114354;28;20768;-69
2022/06/05 11:39:50;;;;;;;0.30;0.30;;;19.60;99.90;;;;;;5114267;28;20744;-69
2022/06/05 11:42:37;;;;;;;0.30;0.30;;;19.60;99.90;;;;;;5114047;28;20432;-70
2022/06/05 11:45:28;;;;;;;0.50;0.50;;;19.60;99.90;;;;;;5114040;28;20541;-70
2022/06/05 11:48:13;;;;;;;0.30;0.30;;;19.50;99.90;;;;;;5114226;28;20397;-69
2022/06/05 11:51:07;;;;;;;0.30;0.30;;;19.30;99.90;;;;;;5113976;28;20400;-69
2022/06/05 11:53:33;;;;;;;0.30;0.30;;;19.10;99.90;;;;;;5104556;28;20940;-70
2022/06/05 11:56:33;;;;;;;0.30;0.30;;;19.20;99.90;;;;;;5114025;28;20396;-70
2022/06/05 11:59:23;;;;;;;0.30;0.30;;;19.40;99.90;;;;;;5114094;28;20175;-69
2022/06/05 12:02:13;;;;;;;0.30;0.30;;;19.80;99.90;;;;;;5113875;28;20420;-70
2022/06/05 12:04:52;;;;;;;0.97;0.97;;;20.20;99.90;;;;;;5114058;28;20398;-68
2022/06/05 12:07:19;;;;;;;0.30;0.30;;;20.60;99.90;;;;;;5113989;28;20409;-70
2022/06/05 12:09:50;;;;;;;0.30;0.30;;;21.00;99.90;;;;;;5113863;28;20397;-70
2022/06/05 12:12:46;;;;;;;1.83;0.57;;;21.10;99.90;;;;;;5113585;28;20419;-69
2022/06/05 12:15:28;;;;;;;0.30;0.30;;;21.30;99.90;;;;;;5114012;28;20777;-68
2022/06/05 12:18:09;;;;;;;0.30;0.30;;;21.40;99.90;;;;;;5113867;28;20739;-69
2022/06/05 12:20:49;;;;;;;0.40;0.40;;;21.70;99.90;;;;;;5113949;28;20388;-69
2022/06/05 12:23:21;;;;;;;0.40;0.40;;;22.00;98.80;;;;;;5112162;28;20452;-70
2022/06/05 12:25:55;;;;;;;0.40;0.40;;;22.10;99.10;;;;;;5113835;28;20452;-70
2022/06/05 12:28:41;;;;;;;0.30;0.30;;;22.20;98.30;;;;;;5113634;28;20412;-68
2022/06/05 12:31:17;;;;;;;0.30;0.30;;;22.10;97.70;;;;;;5113259;28;20422;-69
2022/06/05 12:33:56;;;;;;;0.30;0.30;;;22.10;98.10;;;;;;5113594;28;20389;-69
2022/06/05 12:36:29;;;;;;;1.43;0.83;;;22.20;98.90;;;;;;5117515;28;20371;-70
2022/06/05 12:39:17;;;;;;;0.30;0.30;;;22.30;99.30;;;;;;5117449;28;20409;-69
2022/06/05 12:41:54;;;;;;;0.30;0.30;;;22.50;99.90;;;;;;5096783;28;20434;-69
2022/06/05 12:44:29;;;;;;;0.30;0.30;;;22.80;99.90;;;;;;5117436;28;20398;-70
2022/06/05 12:47:01;;;;;;;0.60;0.60;;;23.10;99.80;;;;;;5117441;28;20442;-70
2022/06/05 12:49:55;;;;;;;0.30;0.30;;;22.80;97.30;;;;;;5117386;28;20390;-71
2022/06/05 12:52:45;;;;;;;0.30;0.30;;;22.90;99.20;;;;;;5117082;28;20425;-70
2022/06/05 12:55:19;;;;;;;0.30;0.30;;;23.10;97.90;;;;;;5117317;28;20398;-69
2022/06/05 12:57:44;;;;;;;0.30;0.30;;;23.00;97.50;;;;;;5117146;28;20402;-70
2022/06/05 13:00:47;;;;;;;0.30;0.30;;;23.00;97.80;;;;;;5117319;28;20383;-69
2022/06/05 13:03:41;;;;;;;0.30;0.30;;;23.10;98.20;;;;;;5117138;28;20215;-69
2022/06/05 13:06:19;;;;;;;0.30;0.30;;;22.90;96.70;;;;;;5117130;28;20445;-70
2022/06/05 13:08:48;;;;;;;0.30;0.30;;;22.60;98.30;;;;;;5117002;28;20454;-70
2022/06/05 13:11:14;;;;;;;0.30;0.30;;;22.20;99.90;;;;;;5116789;27;20410;-69
2022/06/05 13:13:46;;;;;;;0.40;0.40;;;21.90;99.20;;;;;;5116713;28;20409;-68
2022/06/05 13:16:35;;;;;;;0.30;0.30;;;21.90;99.90;;;;;;5116963;28;20167;-69
2022/06/05 13:19:45;;;;;;;0.30;0.30;;;21.80;99.90;;;;;;5115550;28;20909;-69
2022/06/05 13:22:34;;;;;;;0.30;0.30;;;21.60;99.90;;;;;;5096404;28;20436;-70
2022/06/05 13:25:23;;;;;;;1.17;1.17;;;21.70;99.90;;;;;;5116751;28;20414;-68
2022/06/05 13:28:15;;;;;;;0.30;0.30;;;22.10;99.90;;;;;;5116863;28;20462;-70
2022/06/05 13:30:49;;;;;;;0.30;0.30;;;22.50;99.40;;;;;;5116670;28;20418;-70
2022/06/05 13:33:25;;;;;;;0.30;0.30;;;22.80;99.40;;;;;;5116432;28;20373;-68
2022/06/05 13:36:00;;;;;;;0.30;0.30;;;23.00;99.40;;;;;;5116638;28;20412;-69
2022/06/05 13:38:48;;;;;;;0.60;0.50;;;23.10;97.60;;;;;;5116385;28;20393;-69